Time;durP1;ratioP1;P1;durP2;ratioP2;P2;SDS_P1;SDS_P2;PMS_P1;PMS_P2;Temp;Humidity;BMP_temperature;BMP_pressure;BME280_temperature;BME280_humidity;BME280_pressure;Samples;Min_cycle;Max_cycle;Signal;HPM_P1;HPM_P2
2021/10/07 22:23:23;;;;;;;3.45;2.10;;;;;;;11.84;78.65;95092.16;1834336;39;18387304;-64
2021/10/07 22:25:26;;;;;;;4.07;1.70;;;;;;;11.60;79.46;95096.31;2167569;38;20429;-62
2021/10/07 22:27:28;;;;;;;5.15;2.20;;;;;;;11.53;79.96;95099.69;2166924;54;20030;-64
2021/10/07 22:29:29;;;;;;;3.13;1.85;;;;;;;11.47;80.32;95103.78;2166868;46;20073;-62
2021/10/07 22:31:35;;;;;;;4.30;1.60;;;;;;;11.28;80.72;95092.50;2166554;54;20042;-62
2021/10/07 22:33:37;;;;;;;3.10;1.67;;;;;;;11.32;80.99;95103.50;2166063;54;20030;-63
2021/10/07 22:35:39;;;;;;;2.30;1.60;;;;;;;11.30;81.37;95104.66;2166783;46;20046;-62
2021/10/07 22:37:41;;;;;;;3.00;1.85;;;;;;;11.25;81.37;95102.50;2166581;54;20065;-65
2021/10/07 22:39:43;;;;;;;4.32;1.65;;;;;;;11.13;81.88;95099.28;2166863;46;20141;-63
2021/10/07 22:41:45;;;;;;;2.42;1.45;;;;;;;11.21;81.66;95101.97;2166557;54;20042;-62
2021/10/07 22:43:46;;;;;;;2.22;1.42;;;;;;;11.12;81.97;95087.16;2166591;46;20041;-62
2021/10/07 22:45:48;;;;;;;2.05;1.40;;;;;;;11.12;81.75;95075.81;2166661;54;20034;-62
2021/10/07 22:47:50;;;;;;;2.33;1.70;;;;;;;11.15;81.94;95071.09;2166085;46;20580;-63
2021/10/07 22:49:52;;;;;;;2.90;1.73;;;;;;;11.18;82.00;95069.97;2166576;54;20157;-61
2021/10/07 22:51:53;;;;;;;2.90;1.90;;;;;;;11.11;81.96;95066.31;2166494;46;20054;-61
2021/10/07 22:53:58;;;;;;;2.30;1.75;;;;;;;11.06;82.19;95072.84;2166829;46;20038;-64
2021/10/07 22:56:00;;;;;;;3.90;1.50;;;;;;;11.09;82.42;95060.41;2166812;54;20589;-61
2021/10/07 22:58:02;;;;;;;3.78;1.77;;;;;;;11.00;82.55;95064.75;2166665;46;20031;-63
2021/10/07 23:00:06;;;;;;;4.13;1.98;;;;;;;10.96;82.74;95068.66;2166739;54;20026;-62
2021/10/07 23:02:08;;;;;;;5.60;1.88;;;;;;;10.72;83.47;95067.50;2166050;47;20387;-62
2021/10/07 23:04:09;;;;;;;4.85;1.77;;;;;;;10.75;83.65;95069.78;2166472;54;20045;-63
2021/10/07 23:06:11;;;;;;;2.35;1.65;;;;;;;10.76;83.85;95054.91;2165923;54;20763;-62
2021/10/07 23:08:13;;;;;;;2.60;1.70;;;;;;;10.74;83.58;95057.69;2166796;38;20171;-63
2021/10/07 23:10:15;;;;;;;3.08;1.77;;;;;;;10.71;84.21;95060.63;2166777;54;20088;-61
2021/10/07 23:12:16;;;;;;;2.85;1.45;;;;;;;10.79;84.06;95059.84;2166715;38;20492;-61
2021/10/07 23:14:18;;;;;;;2.70;1.60;;;;;;;10.75;84.00;95066.34;2166560;54;20568;-61
2021/10/07 23:16:20;;;;;;;3.63;1.48;;;;;;;10.81;83.72;95065.75;2166615;47;20219;-62
2021/10/07 23:18:22;;;;;;;9.15;1.60;;;;;;;10.88;83.23;95069.41;2165924;54;20646;-64
2021/10/07 23:20:24;;;;;;;2.00;1.60;;;;;;;10.87;83.12;95075.66;2166598;46;20031;-64
2021/10/07 23:22:27;;;;;;;2.58;1.58;;;;;;;10.95;82.82;95073.09;2166331;54;20088;-63
2021/10/07 23:24:29;;;;;;;3.45;1.88;;;;;;;10.95;82.49;95075.72;2166600;46;20034;-63
2021/10/07 23:26:31;;;;;;;2.40;1.67;;;;;;;10.88;82.66;95068.59;2166632;54;20031;-62
2021/10/07 23:28:33;;;;;;;3.42;1.60;;;;;;;10.80;82.83;95069.38;2166526;46;20030;-63
2021/10/07 23:30:36;;;;;;;2.92;2.00;;;;;;;10.84;83.04;95068.06;2166642;46;20079;-62
2021/10/07 23:32:38;;;;;;;4.63;2.00;;;;;;;10.90;82.96;95069.28;2166132;46;20030;-64
2021/10/07 23:34:39;;;;;;;3.35;2.10;;;;;;;10.93;82.52;95077.66;2162765;47;20093;-62
2021/10/07 23:36:41;;;;;;;2.90;2.47;;;;;;;10.99;82.40;95073.59;2163554;54;20038;-63
2021/10/07 23:38:43;;;;;;;2.65;2.13;;;;;;;11.00;82.44;95078.69;2163714;47;20612;-62
2021/10/07 23:40:45;;;;;;;3.60;2.15;;;;;;;11.04;82.28;95074.78;2163712;47;20173;-63
2021/10/07 23:42:47;;;;;;;4.65;2.28;;;;;;;11.03;82.35;95072.31;2163517;47;20031;-62
2021/10/07 23:44:48;;;;;;;3.67;2.17;;;;;;;11.05;82.18;95071.19;2163765;47;20092;-62
2021/10/07 23:46:50;;;;;;;5.65;2.15;;;;;;;10.98;82.02;95074.59;2163273;54;20038;-64
2021/10/07 23:48:53;;;;;;;2.88;1.88;;;;;;;10.99;82.32;95077.06;2163277;47;20050;-63
2021/10/07 23:50:54;;;;;;;2.05;1.63;;;;;;;11.01;81.90;95075.13;2163739;31;20526;-63
2021/10/07 23:52:56;;;;;;;3.28;1.92;;;;;;;11.03;81.63;95074.94;2163644;54;20183;-63
2021/10/07 23:54:58;;;;;;;2.97;1.73;;;;;;;11.12;81.85;95075.81;2163904;46;20514;-62
2021/10/07 23:57:00;;;;;;;2.45;1.90;;;;;;;11.12;81.32;95074.03;2163634;47;20570;-64
2021/10/07 23:59:02;;;;;;;2.10;1.70;;;;;;;11.12;81.45;95073.19;2163578;54;20096;-62
